Prince Albert, Canada
Current Conditions -  °F | °C
As of 10:00 AM on Sunday 21 Dec 2014 (Local Time) from CYPA Reporting Station
Haze Haze  
Wind Chill: 13°   Ceiling: 300
Heat Index: 21°   Visibility: 15mi
Dew Point: 19°   Wind: 7mph
Humidity: 93%   Direction: 80°E
Pressure: 29.46"   Gusts: NA
Location:  53.2°N, 105.75°W
Report Text: CYPA 211600Z 08006KT 15SM R08/3500V5500FT/D BR OVC003 M06/M07 A2946 RMK ST8 SLP003
Loading
Personal Weather Stations






























Interactive Weather Map New forecast layout! Learn more

10-Day Weather Forecast

Advertisements
Track Severe Weather on mobile